Time;durP1;ratioP1;P1;durP2;ratioP2;P2;SDS_P1;SDS_P2;PMS_P1;PMS_P2;Temp;Humidity;BMP_temperature;BMP_pressure;BME280_temperature;BME280_humidity;BME280_pressure;Samples;Min_cycle;Max_cycle;Signal;HPM_P1;HPM_P2
2021/12/17 00:00:58;;;;;;;12.13;7.30;;;;;;;8.17;67.35;101090.47;4367504;32;32784;-78
2021/12/17 00:03:37;;;;;;;13.73;7.43;;;;;;;7.78;68.33;101098.19;4367824;32;33172;-78
2021/12/17 00:06:29;;;;;;;12.37;6.65;;;;;;;8.25;66.83;101089.66;4367963;32;33745;-78
2021/12/17 00:08:57;;;;;;;14.35;7.85;;;;;;;7.81;67.79;101096.97;4357397;32;32761;-78
2021/12/17 00:11:25;;;;;;;11.32;6.72;;;;;;;7.78;68.46;101091.84;4379866;32;34266;-78
2021/12/17 00:13:55;;;;;;;11.63;6.60;;;;;;;8.02;67.24;101110.31;4367549;32;35222;-78
2021/12/17 00:16:27;;;;;;;12.35;6.95;;;;;;;7.93;67.61;101106.66;4366968;32;34000;-78
2021/12/17 00:49:26;;;;;;;9.75;5.20;;;;;;;7.26;65.52;101086.19;4380392;32;34083;-77
2021/12/17 00:52:01;;;;;;;10.23;4.93;;;;;;;7.22;65.86;101091.09;4367346;32;32824;-78
2021/12/17 00:54:40;;;;;;;9.10;5.10;;;;;;;7.21;65.09;101094.81;4355739;32;32186;-78
2021/12/17 00:57:13;;;;;;;8.98;5.20;;;;;;;7.34;65.05;101108.13;4367179;32;32859;-78
2021/12/17 00:59:45;;;;;;;9.77;5.07;;;;;;;7.33;65.10;101102.81;4367212;32;33402;-78
2021/12/17 01:02:20;;;;;;;12.27;5.22;;;;;;;7.58;63.88;101096.59;4355158;32;32711;-78
2021/12/17 01:04:55;;;;;;;9.57;4.80;;;;;;;6.94;65.50;101087.53;4379622;32;33747;-78
2021/12/17 01:07:25;;;;;;;10.75;5.30;;;;;;;6.93;65.76;101091.28;4367916;32;35136;-80
2021/12/17 01:09:57;;;;;;;10.38;5.57;;;;;;;6.67;66.47;101081.19;4354559;32;32410;-79
2021/12/17 01:12:25;;;;;;;9.68;5.30;;;;;;;6.73;66.51;101069.69;4393085;32;33230;-79
2021/12/17 01:14:53;;;;;;;9.50;5.32;;;;;;;6.55;67.14;101061.41;4366852;32;32007;-81
2021/12/17 01:17:23;;;;;;;8.25;4.70;;;;;;;6.51;67.21;101066.31;4367094;32;34408;-79
2021/12/17 01:36:32;;;;;;;9.40;4.93;;;;;;;6.82;65.10;101036.03;4381755;32;34289;-79
2021/12/17 01:44:06;;;;;;;9.45;4.90;;;;;;;6.37;65.82;101045.00;4379252;32;33811;-79
2021/12/17 01:46:37;;;;;;;9.98;4.72;;;;;;;6.40;65.78;101057.47;4354100;32;32237;-79
2021/12/17 02:00:52;;;;;;;8.60;4.50;;;;;;;6.59;63.83;101043.75;4380674;32;32976;-79
2021/12/17 02:03:23;;;;;;;9.15;4.22;;;;;;;6.66;63.46;101033.97;4366245;32;32571;-79
2021/12/17 02:05:51;;;;;;;7.47;3.58;;;;;;;6.48;63.65;101027.59;4366028;32;31718;-79
2021/12/17 02:08:22;;;;;;;8.77;4.10;;;;;;;6.27;64.00;101039.59;4378348;32;32202;-79
2021/12/17 02:22:58;;;;;;;7.75;3.60;;;;;;;6.40;62.93;101033.81;4369313;32;33157;-79
2021/12/17 02:33:02;;;;;;;9.63;3.37;;;;;;;6.16;63.23;101014.38;4380831;32;35285;-79
2021/12/17 02:35:34;;;;;;;7.90;3.58;;;;;;;5.84;64.40;101020.16;4380393;32;34675;-79
2021/12/17 02:38:06;;;;;;;6.97;3.05;;;;;;;5.97;63.89;101038.94;4368640;32;34176;-79
2021/12/17 02:46:19;;;;;;;8.95;3.62;;;;;;;6.48;61.34;101054.88;4382559;32;34188;-79
2021/12/17 02:48:50;;;;;;;7.78;3.92;;;;;;;6.22;62.17;101055.53;4380337;32;31271;-79
2021/12/17 02:51:22;;;;;;;7.78;3.65;;;;;;;6.14;62.21;101074.47;4367866;32;33033;-79
2021/12/17 02:53:50;;;;;;;7.72;3.53;;;;;;;6.10;62.94;101059.41;4367849;32;33957;-79
2021/12/17 02:56:18;;;;;;;10.05;3.90;;;;;;;5.97;62.92;101053.41;4367852;32;32572;-79
2021/12/17 02:58:48;;;;;;;9.50;3.97;;;;;;;5.93;63.40;101057.44;4368016;32;31896;-79
2021/12/17 03:01:20;;;;;;;8.48;4.37;;;;;;;5.98;63.19;101043.37;4380381;32;34677;-79
2021/12/17 03:03:50;;;;;;;9.50;3.75;;;;;;;6.32;62.41;101050.03;4380368;32;35280;-79
2021/12/17 03:06:19;;;;;;;9.73;4.30;;;;;;;6.42;62.24;101042.69;4367848;32;33241;-79
2021/12/17 03:08:50;;;;;;;10.60;4.78;;;;;;;6.24;62.83;101049.94;4367960;32;32897;-79
2021/12/17 03:11:19;;;;;;;9.73;4.95;;;;;;;6.34;62.64;101042.56;4367884;32;32128;-79
2021/12/17 03:13:49;;;;;;;8.57;4.65;;;;;;;6.49;62.82;101040.22;4380314;32;34996;-79
2021/12/17 03:16:38;;;;;;;9.23;5.00;;;;;;;6.75;61.91;101035.78;4368384;32;34920;-79
2021/12/17 03:19:13;;;;;;;9.65;5.20;;;;;;;6.55;62.80;101032.28;4380129;32;32020;-80
2021/12/17 03:24:44;;;;;;;10.50;5.28;;;;;;;6.28;64.37;101024.94;4339637;32;34334;-79
2021/12/17 03:27:11;;;;;;;11.45;6.10;;;;;;;6.39;64.87;101029.34;4380339;32;34643;-79
2021/12/17 03:29:39;;;;;;;12.05;5.90;;;;;;;6.56;65.24;101042.19;4367863;32;31815;-79
2021/12/17 03:32:08;;;;;;;14.00;7.25;;;;;;;6.13;67.06;101050.94;4368217;32;33880;-79
2021/12/17 03:34:35;;;;;;;13.50;7.35;;;;;;;6.22;67.22;101050.06;4380205;32;35167;-79
2021/12/17 03:37:03;;;;;;;13.60;7.32;;;;;;;6.05;68.05;101059.00;4367684;32;33305;-79
2021/12/17 03:39:31;;;;;;;14.90;7.85;;;;;;;5.98;68.89;101067.91;4377223;32;34169;-79
2021/12/17 03:42:00;;;;;;;16.10;8.25;;;;;;;6.24;68.32;101060.81;4352799;32;33829;-79
2021/12/17 03:44:31;;;;;;;16.42;8.88;;;;;;;6.58;67.08;101063.84;4353084;32;34055;-79
2021/12/17 03:47:04;;;;;;;15.18;8.13;;;;;;;6.46;67.45;101060.47;4353056;32;32251;-79
2021/12/17 03:49:36;;;;;;;16.45;8.23;;;;;;;6.43;67.65;101059.91;4365230;32;33212;-79
2021/12/17 03:52:05;;;;;;;17.25;8.73;;;;;;;6.44;67.96;101057.03;4377665;32;33838;-79
2021/12/17 03:54:34;;;;;;;16.50;9.15;;;;;;;6.15;68.83;101039.91;4377360;32;35183;-79
2021/12/17 03:57:05;;;;;;;15.70;8.15;;;;;;;6.49;67.33;101043.81;4352758;32;32424;-79
2021/12/17 03:59:39;;;;;;;16.98;9.43;;;;;;;6.21;68.24;101023.81;4365423;32;33318;-79
2021/12/17 04:02:12;;;;;;;16.37;8.77;;;;;;;6.49;67.79;101037.50;4365279;32;34588;-79
2021/12/17 04:04:42;;;;;;;15.73;8.77;;;;;;;6.63;66.71;101036.97;4365786;32;34687;-79
2021/12/17 04:07:14;;;;;;;16.37;9.10;;;;;;;6.64;66.42;101035.97;4352871;32;32479;-79
2021/12/17 04:09:42;;;;;;;18.60;9.55;;;;;;;6.51;66.80;101038.19;4365258;32;34201;-79
2021/12/17 04:12:17;;;;;;;15.95;8.82;;;;;;;6.32;67.53;101041.00;4352686;32;33371;-79
2021/12/17 04:14:49;;;;;;;15.90;8.07;;;;;;;6.61;66.42;101049.91;4365668;32;35224;-79
2021/12/17 04:17:23;;;;;;;14.85;8.48;;;;;;;6.61;66.30;101052.62;4364833;32;32535;-79
2021/12/17 04:19:54;;;;;;;18.37;8.73;;;;;;;6.81;65.43;101054.28;4365581;32;34140;-79
2021/12/17 04:22:25;;;;;;;18.92;8.77;;;;;;;6.89;65.14;101058.97;4352490;32;32148;-79
2021/12/17 04:24:53;;;;;;;16.70;8.32;;;;;;;6.51;66.04;101062.72;4364884;32;33924;-79
2021/12/17 04:27:20;;;;;;;17.62;8.52;;;;;;;6.47;66.22;101067.66;4364834;32;33698;-79
2021/12/17 04:29:52;;;;;;;15.48;8.40;;;;;;;6.40;66.60;101065.66;4364818;32;32800;-79
2021/12/17 04:32:20;;;;;;;15.73;7.82;;;;;;;6.56;65.79;101071.31;4352589;32;33819;-79
2021/12/17 04:34:51;;;;;;;15.75;8.45;;;;;;;6.50;65.90;101080.13;4365057;32;35011;-79
2021/12/17 04:37:19;;;;;;;17.15;8.65;;;;;;;6.44;66.18;101080.72;4364715;32;33838;-79
2021/12/17 04:39:51;;;;;;;16.85;8.10;;;;;;;6.57;65.39;101079.34;4364813;32;33106;-79
2021/12/17 04:45:23;;;;;;;15.25;8.30;;;;;;;6.48;65.74;101068.50;4335362;32;33026;-79
2021/12/17 04:59:03;;;;;;;15.82;7.68;;;;;;;5.95;67.50;101055.44;4366367;32;32277;-79
2021/12/17 05:01:33;;;;;;;15.23;8.95;;;;;;;6.23;66.41;101059.97;4364643;32;33687;-79
2021/12/17 05:04:02;;;;;;;16.45;8.20;;;;;;;6.17;66.68;101055.09;4364700;32;34049;-79
2021/12/17 05:06:32;;;;;;;14.07;8.35;;;;;;;5.68;68.47;101056.16;4364352;32;32882;-79
2021/12/17 05:09:09;;;;;;;17.85;8.63;;;;;;;5.78;68.40;101048.84;4364660;32;33883;-79
2021/12/17 05:18:14;;;;;;;;;;;;;;;6.02;67.97;101050.25;4353217;32;31865;-79
2021/12/17 05:20:13;;;;;;;14.18;7.45;;;;;;;5.54;69.38;101027.50;4376828;32;33875;-78
2021/12/17 05:22:44;;;;;;;14.40;7.68;;;;;;;5.63;68.92;101015.75;4352620;32;32630;-78
2021/12/17 05:25:15;;;;;;;14.52;7.68;;;;;;;5.75;68.90;101007.41;4364508;32;33606;-78
2021/12/17 05:27:43;;;;;;;13.13;7.68;;;;;;;5.95;67.90;101009.09;4364154;32;34477;-78
2021/12/17 05:30:14;;;;;;;15.35;7.90;;;;;;;5.60;68.76;101004.28;4364154;32;32561;-78
2021/12/17 05:32:42;;;;;;;14.38;7.78;;;;;;;5.76;68.44;101014.59;4364297;32;33447;-77
2021/12/17 05:35:09;;;;;;;15.70;8.02;;;;;;;5.67;68.90;101016.31;4376341;32;34362;-77
2021/12/17 05:37:37;;;;;;;13.73;7.65;;;;;;;5.70;69.04;101021.47;4339313;32;33709;-78
2021/12/17 05:40:06;;;;;;;14.82;7.82;;;;;;;6.08;67.26;101031.44;4363439;32;33719;-77
2021/12/17 05:42:34;;;;;;;12.95;7.10;;;;;;;5.78;68.51;101020.75;4351519;32;31782;-78
2021/12/17 05:45:09;;;;;;;13.25;7.43;;;;;;;5.84;67.99;101014.72;4364247;32;34492;-78
2021/12/17 05:47:42;;;;;;;14.45;7.30;;;;;;;5.74;67.64;101032.94;4364631;32;35079;-78
2021/12/17 05:50:17;;;;;;;12.75;6.97;;;;;;;6.04;66.86;101010.94;4351297;32;33380;-77
2021/12/17 05:52:48;;;;;;;22.37;11.85;;;;;;;5.87;67.40;101025.28;4363672;32;33702;-76
2021/12/17 05:55:15;;;;;;;12.95;7.37;;;;;;;6.07;67.13;101018.84;4352427;32;33672;-77
2021/12/17 05:57:46;;;;;;;19.83;11.07;;;;;;;5.85;67.42;101027.34;4365817;32;34317;-77
2021/12/17 06:00:14;;;;;;;18.45;9.20;;;;;;;5.62;68.58;101043.13;4365886;32;34782;-77
2021/12/17 06:02:44;;;;;;;15.50;7.50;;;;;;;5.58;69.04;101039.81;4364977;32;33107;-77
2021/12/17 06:05:18;;;;;;;12.20;6.00;;;;;;;6.07;67.14;101045.22;4342245;32;32248;-77
2021/12/17 06:07:46;;;;;;;12.40;6.85;;;;;;;6.08;66.66;101033.31;4365697;32;33949;-79
2021/12/17 06:10:14;;;;;;;11.10;6.15;;;;;;;6.06;66.47;101028.00;4377947;32;34110;-77
2021/12/17 06:12:45;;;;;;;12.68;6.72;;;;;;;6.31;65.81;101022.94;4365085;32;33338;-76
2021/12/17 06:15:14;;;;;;;17.75;9.77;;;;;;;6.07;66.40;101026.16;4364298;32;34472;-78
2021/12/17 06:17:52;;;;;;;21.33;11.10;;;;;;;6.03;66.82;101032.91;4377391;32;34633;-77
2021/12/17 06:20:24;;;;;;;12.80;7.70;;;;;;;5.38;69.03;101045.41;4365477;32;32353;-77
2021/12/17 06:22:53;;;;;;;11.85;6.57;;;;;;;5.35;69.45;101051.13;4353719;32;33232;-77
2021/12/17 06:25:20;;;;;;;13.27;7.07;;;;;;;5.30;69.21;101054.28;4365863;32;32502;-77
2021/12/17 06:27:49;;;;;;;11.27;6.37;;;;;;;5.46;68.86;101045.56;4365817;32;33918;-78
2021/12/17 06:30:17;;;;;;;12.40;6.45;;;;;;;5.06;70.25;101045.66;4366257;32;33530;-77
2021/12/17 06:32:49;;;;;;;14.13;7.25;;;;;;;5.51;68.70;101045.97;4366401;32;34334;-80
2021/12/17 06:35:24;;;;;;;14.87;7.25;;;;;;;5.34;68.82;101036.66;4365513;32;33674;-79
2021/12/17 06:37:59;;;;;;;12.98;6.78;;;;;;;5.49;68.50;101043.41;4365637;32;33705;-80
2021/12/17 06:40:30;;;;;;;14.60;6.65;;;;;;;5.25;69.22;101054.69;4378116;32;34121;-80
2021/12/17 06:43:03;;;;;;;12.70;7.22;;;;;;;5.70;67.23;101058.75;4365779;32;34266;-80
2021/12/17 06:46:21;;;;;;;22.23;13.15;;;;;;;5.35;68.71;101064.75;4377420;32;33579;-80
2021/12/17 06:48:32;;;;;;;18.00;8.82;;;;;;;5.26;69.03;101074.63;4371527;32;34326;-80
2021/12/17 07:11:15;;;;;;;13.98;7.35;;;;;;;5.13;69.00;101085.78;4367320;32;32959;-80
2021/12/17 07:22:17;;;;;;;14.43;7.40;;;;;;;5.38;67.67;101095.25;4365486;32;32797;-80
2021/12/17 07:28:06;;;;;;;11.25;6.22;;;;;;;5.55;67.27;101104.59;4367226;32;33564;-77
2021/12/17 07:28:13;;;;;;;12.93;7.20;;;;;;;5.99;67.04;101108.63;4366572;32;31402;-80
2021/12/17 07:33:44;;;;;;;32.03;16.12;;;;;;;5.46;67.63;101124.50;4377829;32;34400;-80
2021/12/17 07:36:18;;;;;;;14.25;7.47;;;;;;;5.40;68.70;101115.03;4367209;32;32479;-80
2021/12/17 07:38:50;;;;;;;16.62;7.47;;;;;;;5.43;67.62;101131.09;4368629;32;32005;-80
2021/12/17 07:41:28;;;;;;;13.05;7.07;;;;;;;5.53;67.27;101142.88;4353610;32;33691;-81
2021/12/17 07:44:00;;;;;;;12.85;7.20;;;;;;;5.49;67.58;101135.97;4337999;32;33444;-80
2021/12/17 07:46:34;;;;;;;13.85;7.70;;;;;;;5.47;67.96;101140.69;4326106;32;32374;-80
2021/12/17 07:49:10;;;;;;;12.25;7.55;;;;;;;5.96;66.31;101141.63;4347077;32;33254;-81
2021/12/17 07:51:43;;;;;;;13.77;6.90;;;;;;;5.86;66.36;101138.00;4368223;32;33851;-80
2021/12/17 07:54:16;;;;;;;15.13;7.47;;;;;;;6.15;65.38;101141.63;4379871;32;33999;-80
2021/12/17 07:56:47;;;;;;;15.23;7.75;;;;;;;6.03;65.26;101150.94;4379748;32;32465;-81
2021/12/17 07:59:16;;;;;;;10.95;6.37;;;;;;;5.80;66.31;101179.47;4367745;32;33383;-80
2021/12/17 08:01:48;;;;;;;13.80;7.30;;;;;;;6.15;65.03;101177.03;4368046;32;34006;-80
2021/12/17 08:04:25;;;;;;;12.82;7.32;;;;;;;6.39;64.22;101171.16;4367295;32;32861;-80
2021/12/17 08:06:57;;;;;;;13.85;7.28;;;;;;;6.48;64.30;101161.22;4378500;32;33137;-80
2021/12/17 08:09:28;;;;;;;13.93;6.53;;;;;;;6.21;64.26;101156.53;4379924;32;34394;-80
2021/12/17 08:12:05;;;;;;;9.50;5.70;;;;;;;6.28;64.66;101158.53;4367997;32;32043;-80
2021/12/17 08:14:36;;;;;;;14.23;6.43;;;;;;;6.10;64.60;101168.44;4380246;32;34962;-80
2021/12/17 08:25:26;;;;;;;18.37;9.55;;;;;;;6.23;63.92;101155.37;4382210;32;33904;-80
2021/12/17 08:28:08;;;;;;;19.52;9.32;;;;;;;6.52;63.75;101155.31;4368787;32;34014;-80
2021/12/17 08:30:42;;;;;;;13.18;7.40;;;;;;;6.28;63.84;101161.25;4368430;32;31992;-80
2021/12/17 08:33:19;;;;;;;13.85;6.68;;;;;;;6.28;64.42;101157.66;4368659;32;33158;-80
2021/12/17 08:35:59;;;;;;;15.05;6.97;;;;;;;6.48;63.69;101159.37;4367704;32;34541;-80
2021/12/17 08:38:34;;;;;;;13.60;6.30;;;;;;;6.58;63.11;101152.00;4368292;32;32620;-80
2021/12/17 08:41:03;;;;;;;13.95;7.18;;;;;;;5.88;65.46;101157.78;4390819;32;34623;-80
2021/12/17 08:43:33;;;;;;;13.73;7.25;;;;;;;6.07;65.02;101170.59;4367477;32;33228;-80
2021/12/17 08:46:08;;;;;;;12.95;6.75;;;;;;;6.56;63.75;101170.38;4379888;32;35438;-80
2021/12/17 08:48:38;;;;;;;13.98;7.18;;;;;;;6.79;63.01;101157.25;4380424;32;34730;-81
2021/12/17 08:51:13;;;;;;;15.05;7.28;;;;;;;6.86;62.66;101157.50;4379616;32;31822;-80
2021/12/17 08:53:44;;;;;;;19.87;12.02;;;;;;;6.97;62.91;101161.94;4392114;32;33511;-80
2021/12/17 08:56:18;;;;;;;19.70;9.98;;;;;;;6.74;62.89;101154.09;4392021;32;34101;-79
2021/12/17 08:59:01;;;;;;;13.52;7.37;;;;;;;6.72;63.47;101147.06;4391906;32;32587;-80
2021/12/17 09:01:31;;;;;;;28.85;12.55;;;;;;;6.65;63.38;101160.44;4391824;32;32404;-80
2021/12/17 09:04:01;;;;;;;19.90;9.43;;;;;;;6.73;63.18;101152.37;4379441;32;32379;-79
2021/12/17 09:06:37;;;;;;;34.13;12.15;;;;;;;6.81;62.73;101165.28;4379660;32;33020;-79
2021/12/17 09:09:17;;;;;;;46.90;18.50;;;;;;;6.86;62.60;101163.84;4379505;32;33663;-79
2021/12/17 09:11:52;;;;;;;25.83;10.73;;;;;;;6.77;63.37;101161.12;4380340;32;33088;-80
2021/12/17 09:14:29;;;;;;;69.93;24.98;;;;;;;6.80;62.98;101153.50;4379236;32;32189;-80
2021/12/17 09:17:00;;;;;;;25.48;9.23;;;;;;;6.90;62.60;101157.06;4379909;32;34498;-79
2021/12/17 09:19:33;;;;;;;13.52;6.78;;;;;;;6.87;62.02;101143.72;4392044;32;34133;-80
2021/12/17 09:22:05;;;;;;;16.00;7.80;;;;;;;6.81;62.63;101144.31;4380111;32;33059;-80
2021/12/17 09:24:37;;;;;;;46.47;16.65;;;;;;;6.94;62.91;101142.13;4379131;32;32343;-80
2021/12/17 09:27:15;;;;;;;11.75;5.80;;;;;;;6.60;63.74;101140.94;4373931;32;32980;-79
2021/12/17 09:29:51;;;;;;;9.45;4.95;;;;;;;6.78;62.98;101130.97;4364808;32;33685;-80
2021/12/17 09:32:21;;;;;;;12.27;5.93;;;;;;;6.69;62.64;101123.69;4366398;32;33186;-80
2021/12/17 09:34:52;;;;;;;11.93;5.50;;;;;;;6.61;63.33;101121.69;4366177;32;33804;-80
2021/12/17 09:37:28;;;;;;;13.23;5.62;;;;;;;6.51;63.69;101123.59;4366885;32;34455;-79
2021/12/17 09:40:06;;;;;;;11.57;6.12;;;;;;;6.44;64.12;101118.91;4365669;32;32879;-79
2021/12/17 09:42:39;;;;;;;18.95;7.60;;;;;;;6.80;62.85;101119.91;4354596;32;33283;-80
2021/12/17 09:45:12;;;;;;;31.37;11.75;;;;;;;7.16;61.67;101112.69;4373225;32;32148;-80
2021/12/17 09:47:46;;;;;;;27.83;10.45;;;;;;;7.11;61.89;101110.44;4370611;32;34467;-80
2021/12/17 09:50:22;;;;;;;32.03;10.45;;;;;;;7.25;61.39;101107.16;4366250;32;33625;-79
2021/12/17 09:52:53;;;;;;;11.57;5.78;;;;;;;7.25;61.33;101111.78;4353889;32;31927;-80
2021/12/17 09:55:26;;;;;;;19.10;7.28;;;;;;;7.06;61.52;101123.69;4374239;32;33836;-79
2021/12/17 09:58:00;;;;;;;22.35;9.10;;;;;;;7.19;61.61;101117.84;4369307;32;34979;-79
2021/12/17 10:00:31;;;;;;;17.67;6.00;;;;;;;7.26;60.55;101113.47;4365503;32;32326;-80
2021/12/17 10:03:02;;;;;;;21.17;7.00;;;;;;;7.48;60.61;101126.72;4353844;32;33030;-80
2021/12/17 10:05:34;;;;;;;16.15;5.95;;;;;;;7.35;61.04;101119.91;4365520;32;31705;-79
2021/12/17 10:08:10;;;;;;;13.52;5.35;;;;;;;7.10;61.63;101129.69;4353580;32;35049;-79
2021/12/17 10:10:45;;;;;;;9.88;4.68;;;;;;;7.48;60.50;101113.06;4365703;32;33927;-79
2021/12/17 10:13:23;;;;;;;9.88;4.53;;;;;;;7.29;59.82;101113.19;4353249;32;31990;-79
2021/12/17 10:16:05;;;;;;;9.43;4.47;;;;;;;7.34;60.29;101110.84;4365641;32;34667;-79
2021/12/17 10:18:42;;;;;;;9.48;4.60;;;;;;;7.09;60.61;101130.72;4366196;32;34397;-80
2021/12/17 10:21:22;;;;;;;8.82;4.37;;;;;;;7.03;61.72;101123.12;4353361;32;33247;-79
2021/12/17 10:23:58;;;;;;;9.50;4.60;;;;;;;7.18;60.88;101108.78;4365718;32;33570;-80
2021/12/17 10:26:44;;;;;;;10.63;4.12;;;;;;;7.63;59.89;101104.34;4366400;32;33629;-80
2021/12/17 10:29:20;;;;;;;7.97;3.95;;;;;;;7.80;58.50;101090.66;4375295;32;35381;-80
2021/12/17 10:31:58;;;;;;;9.10;3.60;;;;;;;7.47;60.02;101103.16;4354922;32;34411;-79
2021/12/17 10:34:31;;;;;;;7.62;4.03;;;;;;;7.62;59.03;101099.88;4380766;32;33908;-80
2021/12/17 10:37:04;;;;;;;9.45;4.05;;;;;;;7.64;59.29;101085.06;4368603;32;34185;-80
2021/12/17 10:39:38;;;;;;;24.67;10.95;;;;;;;7.95;58.60;101088.22;4359215;32;33457;-80
2021/12/17 10:42:10;;;;;;;9.23;5.10;;;;;;;8.21;57.80;101083.66;4352517;32;33920;-80
2021/12/17 10:45:06;;;;;;;7.00;3.87;;;;;;;7.74;58.52;101076.78;4340079;32;31413;-79
2021/12/17 10:47:37;;;;;;;6.75;3.42;;;;;;;7.82;58.53;101072.22;4365886;32;33711;-80
2021/12/17 10:50:11;;;;;;;7.15;3.60;;;;;;;8.12;57.35;101065.47;4353246;32;34552;-80
2021/12/17 10:52:45;;;;;;;8.50;3.72;;;;;;;8.05;56.96;101077.19;4353017;32;32916;-80
2021/12/17 10:55:17;;;;;;;8.05;3.53;;;;;;;7.82;57.74;101083.16;4369091;32;31884;-80
2021/12/17 10:57:54;;;;;;;8.50;3.62;;;;;;;7.94;57.26;101089.22;4359993;32;34653;-80
2021/12/17 11:00:28;;;;;;;9.15;4.05;;;;;;;7.80;57.76;101070.69;4377716;32;33012;-80
2021/12/17 11:03:08;;;;;;;9.30;4.07;;;;;;;7.88;58.33;101068.84;4353197;32;33886;-80
2021/12/17 11:05:39;;;;;;;11.95;6.35;;;;;;;7.61;58.30;101074.44;4361134;32;33414;-80
2021/12/17 11:08:33;;;;;;;11.02;5.07;;;;;;;7.81;58.36;101064.19;4356645;32;32320;-80
2021/12/17 11:11:11;;;;;;;9.18;3.62;;;;;;;7.80;57.82;101076.16;4354339;32;34361;-80
2021/12/17 11:13:57;;;;;;;8.70;3.70;;;;;;;8.26;56.76;101070.34;4371089;32;33941;-80
2021/12/17 11:16:31;;;;;;;9.00;3.53;;;;;;;7.91;57.76;101065.81;4340758;32;33158;-80
2021/12/17 11:18:59;;;;;;;9.88;4.37;;;;;;;8.36;56.73;101055.75;4366283;32;33699;-80
2021/12/17 11:21:34;;;;;;;22.48;10.30;;;;;;;8.70;56.07;101056.63;4344446;32;33957;-80
2021/12/17 11:24:05;;;;;;;11.30;4.15;;;;;;;8.71;56.22;101052.84;4353068;32;34816;-80
2021/12/17 11:26:35;;;;;;;10.98;4.30;;;;;;;8.77;55.27;101051.34;4365658;32;34306;-80
2021/12/17 11:29:10;;;;;;;10.63;3.87;;;;;;;8.15;56.42;101056.09;4364244;32;33136;-80
2021/12/17 11:31:40;;;;;;;10.98;4.30;;;;;;;8.49;55.54;101058.88;4369684;32;34420;-80
2021/12/17 11:34:12;;;;;;;9.88;3.62;;;;;;;8.55;55.33;101052.75;4353230;32;33977;-80
2021/12/17 11:36:45;;;;;;;10.75;5.20;;;;;;;8.68;55.50;101066.88;4363446;32;31687;-79
2021/12/17 11:39:22;;;;;;;8.77;3.85;;;;;;;8.72;55.66;101054.56;4373591;32;32105;-79
2021/12/17 11:42:29;;;;;;;11.05;3.75;;;;;;;8.57;55.54;101045.25;4358404;32;33999;-80
2021/12/17 11:47:54;;;;;;;10.75;4.03;;;;;;;8.43;56.36;101048.62;4354726;32;32737;-79
2021/12/17 11:50:22;;;;;;;8.05;3.62;;;;;;;8.41;55.90;101053.41;4359111;32;196564;-79
2021/12/17 11:53:00;;;;;;;9.60;3.80;;;;;;;8.18;56.16;101053.03;4367082;32;34280;-80
2021/12/17 11:55:39;;;;;;;8.40;3.35;;;;;;;8.30;56.04;101057.22;4355445;32;32423;-80
2021/12/17 11:58:16;;;;;;;8.98;3.65;;;;;;;8.37;55.49;101052.00;4347598;32;31889;-79
2021/12/17 12:00:44;;;;;;;9.07;3.75;;;;;;;8.08;55.89;101069.53;4378988;32;33836;-79
2021/12/17 12:03:21;;;;;;;7.60;3.15;;;;;;;8.22;55.97;101060.75;4377477;32;34479;-79
2021/12/17 12:05:59;;;;;;;6.45;3.35;;;;;;;8.49;55.61;101072.56;4365560;32;34641;-80
2021/12/17 12:08:49;;;;;;;9.63;4.37;;;;;;;8.17;55.74;101086.88;4379155;32;33387;-79
2021/12/17 12:11:23;;;;;;;10.60;3.37;;;;;;;8.51;54.99;101063.19;4366750;32;32334;-79
2021/12/17 12:13:55;;;;;;;7.03;3.28;;;;;;;8.43;54.70;101075.97;4352602;32;33949;-80
2021/12/17 12:16:31;;;;;;;11.15;3.20;;;;;;;8.34;54.65;101079.69;4375278;32;33990;-79
2021/12/17 12:19:05;;;;;;;8.60;3.40;;;;;;;8.44;55.22;101073.09;4354779;32;32197;-79
2021/12/17 12:21:34;;;;;;;8.50;2.83;;;;;;;8.51;55.10;101082.31;4375180;32;33687;-80
2021/12/17 12:24:09;;;;;;;10.25;3.15;;;;;;;8.62;55.43;101075.72;4352725;32;32800;-80
2021/12/17 12:26:48;;;;;;;7.85;3.03;;;;;;;8.47;55.11;101074.59;4363927;32;32468;-80
2021/12/17 12:29:23;;;;;;;8.15;3.10;;;;;;;8.50;54.48;101079.75;4365239;32;32859;-80
2021/12/17 12:31:55;;;;;;;10.55;3.80;;;;;;;8.58;54.72;101069.72;4352473;32;32120;-79
2021/12/17 12:34:32;;;;;;;6.28;2.80;;;;;;;8.07;55.28;101053.28;4359087;32;33351;-79
2021/12/17 12:37:15;;;;;;;10.82;2.90;;;;;;;8.06;54.88;101065.25;4365175;32;34079;-80
2021/12/17 12:39:53;;;;;;;8.73;3.33;;;;;;;8.33;55.05;101062.41;4369279;32;33005;-80
2021/12/17 12:42:32;;;;;;;9.80;3.30;;;;;;;8.50;54.33;101064.19;4358285;32;32212;-80
2021/12/17 12:45:03;;;;;;;9.75;3.15;;;;;;;8.16;55.32;101052.34;4352673;32;33422;-80
2021/12/17 12:47:48;;;;;;;7.72;3.00;;;;;;;8.41;55.40;101056.12;4367124;32;33486;-80
2021/12/17 12:50:23;;;;;;;8.85;4.45;;;;;;;8.06;55.64;101046.09;4379441;32;33966;-80
2021/12/17 12:52:56;;;;;;;10.40;2.80;;;;;;;8.38;54.89;101040.91;4368708;32;34556;-80
2021/12/17 12:55:32;;;;;;;7.62;2.92;;;;;;;8.35;54.39;101060.37;4366842;32;34372;-79
2021/12/17 12:58:03;;;;;;;11.10;3.30;;;;;;;8.23;54.97;101050.69;4373643;32;34010;-82
2021/12/17 13:00:51;;;;;;;8.05;3.17;;;;;;;8.31;54.44;101061.69;4363295;32;33949;-80
2021/12/17 13:03:23;;;;;;;13.00;4.47;;;;;;;8.38;55.17;101060.03;4364481;32;33481;-80
2021/12/17 13:05:52;;;;;;;9.88;3.50;;;;;;;8.57;54.54;101058.94;4351350;32;32881;-80
2021/12/17 13:08:21;;;;;;;10.18;4.40;;;;;;;8.15;55.11;101048.75;4352327;32;33309;-80
2021/12/17 13:10:54;;;;;;;10.13;3.47;;;;;;;8.14;56.18;101059.84;4364421;32;33381;-80
2021/12/17 13:16:23;;;;;;;17.73;8.55;;;;;;;7.76;56.97;101061.09;4351999;32;32439;-79
2021/12/17 13:22:13;;;;;;;81.40;24.50;;;;;;;7.79;57.03;101071.72;4355490;32;32754;-79
2021/12/17 13:24:37;;;;;;;12.65;3.83;;;;;;;7.98;56.33;101060.56;4365725;32;33562;-79
2021/12/17 13:27:11;;;;;;;11.40;3.72;;;;;;;7.84;56.89;101050.19;4350998;32;32981;-79
2021/12/17 13:29:45;;;;;;;11.50;3.53;;;;;;;7.98;56.51;101055.09;4374988;32;33927;-80
2021/12/17 13:32:17;;;;;;;7.72;2.87;;;;;;;7.86;56.92;101059.09;4366731;32;33361;-79
2021/12/17 13:34:56;;;;;;;9.65;3.42;;;;;;;7.93;56.27;101055.56;4365117;32;33719;-79
2021/12/17 13:37:30;;;;;;;11.10;3.12;;;;;;;8.00;55.89;101039.41;4371237;32;33932;-80
2021/12/17 13:40:01;;;;;;;8.57;3.20;;;;;;;7.81;56.87;101055.97;4371448;32;34633;-79
2021/12/17 13:42:35;;;;;;;8.73;3.37;;;;;;;7.50;56.63;101061.00;4375618;32;33413;-79
2021/12/17 13:45:11;;;;;;;7.15;2.85;;;;;;;7.89;56.03;101061.50;4360412;32;34624;-79
2021/12/17 13:47:42;;;;;;;;;;;;;;;8.05;55.45;101058.91;4363341;32;32372;-79
2021/12/17 13:50:12;;;;;;;7.68;4.20;;;;;;;7.90;55.95;101060.50;4384647;32;34131;-78
2021/12/17 13:52:53;;;;;;;8.95;3.28;;;;;;;8.10;55.73;101062.03;4348559;32;31801;-79
2021/12/17 13:55:32;;;;;;;10.10;3.62;;;;;;;7.75;56.21;101062.97;4364198;32;33843;-79
2021/12/17 13:58:10;;;;;;;9.85;4.10;;;;;;;8.14;55.44;101082.56;4371741;32;34308;-79
2021/12/17 14:00:42;;;;;;;12.18;5.37;;;;;;;7.95;55.68;101085.50;4369170;32;34252;-79
2021/12/17 14:03:14;;;;;;;13.38;4.68;;;;;;;7.59;55.88;101080.06;4366630;32;34141;-79
2021/12/17 14:05:50;;;;;;;7.97;2.80;;;;;;;7.50;56.40;101083.72;4359503;32;32211;-79
2021/12/17 14:08:21;;;;;;;9.85;3.75;;;;;;;7.69;55.61;101084.59;4366297;32;35192;-79
2021/12/17 14:10:54;;;;;;;8.02;2.87;;;;;;;7.37;56.64;101087.84;4359119;32;32683;-79
2021/12/17 14:13:26;;;;;;;;;;;;;;;7.56;56.23;101083.09;4375653;32;33192;-79
2021/12/17 14:16:02;;;;;;;11.50;4.75;;;;;;;7.74;56.07;101090.44;4352687;32;32253;-79
2021/12/17 14:18:34;;;;;;;12.82;6.30;;;;;;;7.57;56.64;101090.28;4375129;32;32933;-78
2021/12/17 14:21:08;;;;;;;18.50;7.78;;;;;;;7.46;56.53;101078.72;4386907;32;33905;-78
2021/12/17 14:23:40;;;;;;;9.75;3.75;;;;;;;7.62;55.84;101076.16;4368026;32;31906;-79
2021/12/17 14:26:11;;;;;;;11.05;4.10;;;;;;;7.23;56.90;101070.09;4360398;32;34031;-79
2021/12/17 14:28:44;;;;;;;7.90;3.05;;;;;;;7.44;56.21;101067.94;4364750;32;33755;-79
2021/12/17 14:31:18;;;;;;;9.27;3.33;;;;;;;7.44;56.36;101070.69;4366525;32;35006;-79
2021/12/17 14:33:57;;;;;;;7.37;3.20;;;;;;;7.28;56.94;101059.56;4352726;32;32029;-79
2021/12/17 14:36:38;;;;;;;7.65;3.70;;;;;;;7.12;57.27;101057.56;4371164;32;33722;-79
2021/12/17 14:39:19;;;;;;;14.43;7.03;;;;;;;6.81;58.17;101057.00;4380432;32;33086;-79